createdAt,value
2023-05-02T00:00:51.417Z,4.02
2023-05-02T00:01:51.450Z,4.08
2023-05-02T00:02:51.570Z,4.20
2023-05-02T00:03:51.439Z,3.99
2023-05-02T00:04:51.401Z,3.93
2023-05-02T00:05:51.367Z,4.11
2023-05-02T00:06:51.492Z,4.11
2023-05-02T00:07:51.342Z,4.10
2023-05-02T00:08:51.317Z,3.99
2023-05-02T00:09:51.321Z,4.07
2023-05-02T00:10:51.321Z,3.96
2023-05-02T00:11:51.307Z,4.06
2023-05-02T00:12:51.281Z,4.08
2023-05-02T00:13:51.273Z,4.10
2023-05-02T00:14:51.256Z,4.08
2023-05-02T00:15:51.247Z,3.99
2023-05-02T00:16:51.284Z,3.99
2023-05-02T00:17:51.309Z,4.00
2023-05-02T00:18:51.208Z,4.04
2023-05-02T00:19:51.202Z,4.02
2023-05-02T00:20:51.190Z,3.93
2023-05-02T00:21:51.194Z,4.06
2023-05-02T00:22:51.207Z,3.96
2023-05-02T00:23:51.160Z,3.81
2023-05-02T00:24:51.147Z,3.96
2023-05-02T00:25:51.165Z,3.90
2023-05-02T00:26:51.122Z,3.84
2023-05-02T00:27:51.313Z,3.88
2023-05-02T00:28:51.124Z,3.84
2023-05-02T00:29:51.094Z,3.89
2023-05-02T00:30:51.128Z,3.89
2023-05-02T00:31:51.071Z,4.02
2023-05-02T00:32:51.110Z,3.99
2023-05-02T00:33:51.072Z,3.88
2023-05-02T00:34:51.070Z,3.90
2023-05-02T00:35:51.030Z,3.88
2023-05-02T00:36:51.017Z,4.00
2023-05-02T00:37:51.012Z,3.93
2023-05-02T00:38:51.012Z,4.11
2023-05-02T00:39:50.984Z,3.81
2023-05-02T00:40:51.013Z,3.86
2023-05-02T00:41:50.967Z,3.99
2023-05-02T00:42:50.948Z,4.00
2023-05-02T00:43:50.967Z,3.96
2023-05-02T00:44:50.928Z,4.00
2023-05-02T00:45:50.932Z,3.96
2023-05-02T00:46:50.968Z,3.82
2023-05-02T00:47:50.936Z,3.92
2023-05-02T00:48:50.891Z,3.89
2023-05-02T00:49:50.892Z,3.75
2023-05-02T00:50:50.863Z,3.84
2023-05-02T00:51:50.860Z,3.77
2023-05-02T00:52:50.868Z,3.81
2023-05-02T00:53:50.846Z,3.93
2023-05-02T00:54:50.861Z,3.88
2023-05-02T00:55:50.822Z,3.92
2023-05-02T00:56:50.806Z,3.92
2023-05-02T00:57:50.834Z,3.92
2023-05-02T00:58:50.813Z,3.88
2023-05-02T00:59:50.767Z,3.86
2023-05-02T01:00:50.768Z,3.81
2023-05-02T01:01:50.774Z,3.82
2023-05-02T01:02:50.784Z,3.89
2023-05-02T01:03:50.831Z,3.89
2023-05-02T01:04:50.736Z,3.96
2023-05-02T01:05:50.705Z,3.84
2023-05-02T01:06:50.815Z,3.92
2023-05-02T01:07:50.681Z,3.95
2023-05-02T01:08:50.675Z,3.88
2023-05-02T01:09:50.659Z,3.92
2023-05-02T01:10:50.674Z,3.92
2023-05-02T01:11:50.647Z,3.90
2023-05-02T01:12:50.622Z,3.93
2023-05-02T01:13:50.615Z,3.88
2023-05-02T01:14:50.600Z,3.96
2023-05-02T01:15:50.624Z,3.96
2023-05-02T01:16:50.627Z,4.07
2023-05-02T01:17:50.600Z,4.02
2023-05-02T01:18:50.559Z,3.98
2023-05-02T01:19:50.554Z,3.96
2023-05-02T01:20:50.538Z,4.06
2023-05-02T01:21:50.529Z,3.96
2023-05-02T01:22:50.547Z,3.84
2023-05-02T01:23:50.508Z,3.92
2023-05-02T01:24:50.494Z,3.82
2023-05-02T01:25:50.486Z,3.78
2023-05-02T01:26:50.504Z,3.72
2023-05-02T01:27:50.471Z,3.77
2023-05-02T01:28:50.480Z,3.89
2023-05-02T01:29:50.451Z,3.72
2023-05-02T01:30:50.457Z,3.86
2023-05-02T01:31:50.489Z,3.77
2023-05-02T01:32:50.450Z,3.77
2023-05-02T01:33:50.399Z,3.84
2023-05-02T01:34:50.427Z,3.78
2023-05-02T01:35:50.385Z,3.70
2023-05-02T01:36:50.409Z,3.77
2023-05-02T01:37:50.357Z,3.75
2023-05-02T01:38:50.344Z,3.81
2023-05-02T01:39:50.347Z,3.82
2023-05-02T01:40:50.352Z,3.74
2023-05-02T01:41:50.334Z,3.70
2023-05-02T01:42:50.332Z,3.72
2023-05-02T01:43:50.304Z,3.80
2023-05-02T01:44:50.280Z,3.75
2023-05-02T01:45:50.285Z,3.74
2023-05-02T01:46:50.313Z,3.74
2023-05-02T01:47:50.288Z,3.82
2023-05-02T01:48:50.245Z,3.71
2023-05-02T01:49:50.235Z,3.74
2023-05-02T01:50:50.223Z,3.77
2023-05-02T01:51:50.238Z,3.78
2023-05-02T01:52:50.210Z,3.74
2023-05-02T01:53:50.197Z,3.82
2023-05-02T01:54:50.191Z,3.75
2023-05-02T01:55:50.167Z,3.88
2023-05-02T01:56:50.182Z,3.92
2023-05-02T01:57:50.151Z,3.82
2023-05-02T01:58:50.168Z,3.89
2023-05-02T01:59:50.140Z,3.90
2023-05-02T02:00:50.131Z,3.74
2023-05-02T02:01:50.101Z,3.74
2023-05-02T02:02:50.139Z,3.74
2023-05-02T02:03:50.136Z,3.78
2023-05-02T02:04:50.135Z,3.70
2023-05-02T02:05:50.068Z,3.74
2023-05-02T02:06:50.170Z,3.77
2023-05-02T02:07:50.040Z,3.72
2023-05-02T02:08:50.033Z,3.86
2023-05-02T02:09:50.015Z,3.88
2023-05-02T02:10:50.019Z,3.89
2023-05-02T02:11:50.004Z,3.70
2023-05-02T02:12:49.997Z,3.88
2023-05-02T02:13:49.983Z,3.82
2023-05-02T02:14:49.989Z,3.74
2023-05-02T02:15:49.949Z,3.82
2023-05-02T02:16:50.012Z,3.86
2023-05-02T02:17:49.954Z,3.81
2023-05-02T02:18:49.913Z,3.78
2023-05-02T02:19:49.920Z,3.89
2023-05-02T02:20:49.891Z,3.82
2023-05-02T02:21:49.891Z,3.88
2023-05-02T02:22:49.887Z,3.89
2023-05-02T02:23:49.861Z,3.90
2023-05-02T02:24:50.998Z,3.93
2023-05-02T02:25:49.848Z,3.84
2023-05-02T02:26:49.832Z,3.77
2023-05-02T02:27:49.822Z,3.90
2023-05-02T02:28:49.838Z,3.90
2023-05-02T02:29:49.800Z,3.88
2023-05-02T02:30:49.848Z,3.92
2023-05-02T02:31:49.778Z,3.93
2023-05-02T02:32:49.799Z,3.95
2023-05-02T02:33:49.753Z,3.88
2023-05-02T02:34:49.768Z,3.88
2023-05-02T02:35:49.732Z,3.88
2023-05-02T02:36:49.747Z,3.92
2023-05-02T02:37:49.725Z,3.88
2023-05-02T02:38:49.698Z,3.86
2023-05-02T02:39:49.705Z,4.04
2023-05-02T02:40:49.717Z,3.95
2023-05-02T02:41:49.688Z,3.84
2023-05-02T02:42:49.681Z,3.84
2023-05-02T02:43:49.672Z,3.89
2023-05-02T02:44:49.635Z,3.89
2023-05-02T02:45:49.664Z,3.81
2023-05-02T02:46:49.685Z,3.82
2023-05-02T02:47:49.657Z,3.68
2023-05-02T02:48:49.592Z,3.82
2023-05-02T02:49:49.606Z,3.90
2023-05-02T02:50:49.569Z,3.81
2023-05-02T02:51:49.555Z,3.84
2023-05-02T02:52:49.579Z,3.86
2023-05-02T02:53:49.533Z,3.89
2023-05-02T02:54:49.525Z,3.84
2023-05-02T02:55:49.510Z,3.81
2023-05-02T02:56:49.501Z,3.74
2023-05-02T02:57:49.493Z,3.74
2023-05-02T02:58:49.518Z,3.71
2023-05-02T02:59:49.468Z,3.67
2023-05-02T03:00:49.456Z,3.77
2023-05-02T03:01:49.489Z,3.72
2023-05-02T03:02:49.498Z,3.75
2023-05-02T03:03:49.469Z,3.72
2023-05-02T03:04:49.436Z,3.80
2023-05-02T03:05:49.402Z,3.82
2023-05-02T03:06:49.512Z,3.84
2023-05-02T03:07:49.402Z,3.95
2023-05-02T03:08:49.390Z,3.78
2023-05-02T03:09:49.375Z,3.77
2023-05-02T03:10:49.396Z,3.84
2023-05-02T03:11:49.338Z,3.80
2023-05-02T03:12:49.330Z,3.72
2023-05-02T03:13:49.318Z,3.74
2023-05-02T03:14:49.309Z,3.80
2023-05-02T03:15:49.329Z,3.77
2023-05-02T03:16:49.308Z,3.84
2023-05-02T03:17:49.314Z,3.62
2023-05-02T03:18:49.286Z,3.72
2023-05-02T03:19:49.260Z,3.72
2023-05-02T03:20:49.253Z,3.81
2023-05-02T03:21:49.236Z,3.81
2023-05-02T03:22:49.264Z,3.81
2023-05-02T03:23:49.212Z,3.90
2023-05-02T03:24:49.205Z,3.74
2023-05-02T03:25:49.205Z,3.68
2023-05-02T03:26:49.205Z,3.88
2023-05-02T03:27:49.171Z,3.62
2023-05-02T03:28:49.192Z,3.77
2023-05-02T03:29:49.146Z,3.72
2023-05-02T03:30:49.140Z,3.86
2023-05-02T03:31:49.143Z,3.88
2023-05-02T03:32:49.145Z,3.71
2023-05-02T03:33:49.103Z,3.84
2023-05-02T03:34:49.123Z,3.86
2023-05-02T03:35:49.111Z,3.75
2023-05-02T03:36:49.105Z,3.68
2023-05-02T03:37:49.070Z,3.70
2023-05-02T03:38:49.060Z,3.77
2023-05-02T03:39:49.051Z,3.72
2023-05-02T03:40:49.065Z,3.71
2023-05-02T03:41:49.021Z,3.81
2023-05-02T03:42:49.020Z,3.80
2023-05-02T03:43:48.995Z,3.84
2023-05-02T03:44:48.985Z,3.74
2023-05-02T03:45:49.016Z,3.78
2023-05-02T03:46:49.110Z,3.77
2023-05-02T03:47:48.977Z,3.84
2023-05-02T03:48:48.956Z,3.92
2023-05-02T03:49:48.929Z,3.84
2023-05-02T03:50:48.941Z,3.93
2023-05-02T03:51:48.919Z,3.82
2023-05-02T03:52:48.928Z,3.74
2023-05-02T03:53:48.891Z,3.71
2023-05-02T03:54:48.881Z,3.86
2023-05-02T03:55:48.891Z,3.84
2023-05-02T03:56:48.862Z,3.78
2023-05-02T03:57:48.855Z,3.95
2023-05-02T03:58:48.875Z,3.92
2023-05-02T03:59:48.826Z,3.81
2023-05-02T04:00:48.819Z,3.80
2023-05-02T04:01:48.838Z,3.81
2023-05-02T04:02:48.848Z,3.80
2023-05-02T04:03:48.926Z,3.77
2023-05-02T04:04:48.838Z,3.77
2023-05-02T04:05:48.768Z,3.82
2023-05-02T04:06:48.895Z,3.96
2023-05-02T04:07:48.739Z,3.96
2023-05-02T04:08:48.732Z,3.90
2023-05-02T04:09:48.716Z,3.86
2023-05-02T04:10:48.751Z,3.98
2023-05-02T04:11:48.701Z,3.78
2023-05-02T04:12:48.686Z,3.95
2023-05-02T04:13:48.728Z,3.98
2023-05-02T04:14:48.667Z,3.92
2023-05-02T04:15:48.654Z,3.80
2023-05-02T04:16:48.731Z,3.92
2023-05-02T04:17:48.721Z,3.77
2023-05-02T04:18:48.625Z,3.86
2023-05-02T04:19:48.615Z,3.92
2023-05-02T04:20:48.616Z,3.92
2023-05-02T04:21:48.600Z,3.86
2023-05-02T04:22:48.610Z,3.88
2023-05-02T04:23:48.578Z,3.95
2023-05-02T04:24:48.560Z,4.04
2023-05-02T04:25:48.546Z,3.92
2023-05-02T04:26:48.552Z,3.93
2023-05-02T04:27:48.523Z,3.90
2023-05-02T04:28:48.542Z,4.06
2023-05-02T04:29:48.512Z,4.06
2023-05-02T04:30:48.521Z,4.02
2023-05-02T04:31:48.478Z,3.96
2023-05-02T04:32:48.505Z,4.10
2023-05-02T04:33:48.470Z,3.98
2023-05-02T04:34:48.473Z,4.06
2023-05-02T04:35:48.473Z,4.07
2023-05-02T04:36:48.427Z,4.07
2023-05-02T04:37:48.453Z,4.14
2023-05-02T04:38:48.433Z,4.24
2023-05-02T04:39:48.411Z,4.18
2023-05-02T04:40:48.411Z,4.02
2023-05-02T04:41:48.410Z,4.17
2023-05-02T04:42:48.399Z,4.13
2023-05-02T04:43:48.382Z,4.16
2023-05-02T04:44:48.352Z,4.20
2023-05-02T04:45:48.347Z,4.18
2023-05-02T04:46:48.447Z,4.18
2023-05-02T04:47:48.349Z,4.07
2023-05-02T04:48:48.296Z,4.02
2023-05-02T04:49:48.300Z,4.13
2023-05-02T04:50:48.300Z,4.08
2023-05-02T04:51:48.259Z,4.13
2023-05-02T04:52:48.278Z,4.13
2023-05-02T04:53:48.241Z,4.13
2023-05-02T04:54:48.262Z,4.10
2023-05-02T04:55:48.218Z,4.08
2023-05-02T04:56:48.224Z,4.02
2023-05-02T04:57:48.197Z,4.07
2023-05-02T04:58:48.220Z,4.28
2023-05-02T04:59:48.184Z,4.29
2023-05-02T05:00:48.169Z,4.10
2023-05-02T05:01:48.166Z,4.25
2023-05-02T05:02:48.206Z,4.31
2023-05-02T05:03:48.299Z,4.25
2023-05-02T05:04:48.169Z,4.39
2023-05-02T05:05:48.225Z,4.28
2023-05-02T05:06:48.203Z,4.21
2023-05-02T05:07:48.095Z,4.34
2023-05-02T05:08:48.084Z,4.43
2023-05-02T05:09:48.067Z,4.43
2023-05-02T05:10:48.097Z,4.31
2023-05-02T05:11:48.049Z,4.36
2023-05-02T05:12:48.037Z,4.18
2023-05-02T05:13:48.034Z,4.26
2023-05-02T05:14:48.047Z,4.25
2023-05-02T05:15:48.025Z,4.28
2023-05-02T05:16:48.118Z,4.29
2023-05-02T05:17:47.998Z,4.34
2023-05-02T05:18:47.973Z,4.34
2023-05-02T05:19:47.968Z,4.28
2023-05-02T05:20:47.960Z,4.38
2023-05-02T05:21:47.939Z,4.34
2023-05-02T05:22:47.959Z,4.42
2023-05-02T05:23:47.930Z,4.47
2023-05-02T05:24:47.909Z,4.39
2023-05-02T05:25:47.895Z,4.51
2023-05-02T05:26:47.917Z,4.51
2023-05-02T05:27:47.872Z,4.50
2023-05-02T05:28:47.927Z,4.57
2023-05-02T05:29:47.867Z,4.54
2023-05-02T05:30:47.853Z,4.42
2023-05-02T05:31:47.891Z,4.44
2023-05-02T05:32:47.855Z,4.44
2023-05-02T05:33:47.856Z,4.53
2023-05-02T05:34:47.829Z,4.47
2023-05-02T05:35:47.798Z,4.56
2023-05-02T05:36:47.793Z,4.44
2023-05-02T05:37:47.773Z,4.47
2023-05-02T05:38:47.755Z,4.59
2023-05-02T05:39:47.743Z,4.50
2023-05-02T05:40:47.776Z,4.61
2023-05-02T05:41:47.720Z,4.67
2023-05-02T05:42:47.755Z,4.51
2023-05-02T05:43:47.699Z,4.65
2023-05-02T05:44:47.704Z,4.69
2023-05-02T05:45:47.689Z,4.59
2023-05-02T05:46:47.732Z,4.51
2023-05-02T05:47:47.701Z,4.75
2023-05-02T05:48:47.675Z,4.67
2023-05-02T05:49:47.634Z,4.64
2023-05-02T05:50:47.626Z,4.65
2023-05-02T05:51:47.620Z,4.68
2023-05-02T05:52:47.618Z,4.64
2023-05-02T05:53:47.591Z,4.71
2023-05-02T05:54:47.599Z,4.67
2023-05-02T05:55:47.568Z,4.77
2023-05-02T05:56:47.563Z,4.74
2023-05-02T05:57:47.547Z,4.65
2023-05-02T05:58:47.569Z,4.83
2023-05-02T05:59:47.528Z,4.59
2023-05-02T06:00:47.529Z,4.72
2023-05-02T06:01:47.533Z,4.68
2023-05-02T06:02:47.618Z,4.68
2023-05-02T06:03:48.066Z,4.59
2023-05-02T06:04:47.594Z,4.72
2023-05-02T06:05:47.473Z,4.68
2023-05-02T06:06:47.498Z,4.87
2023-05-02T06:07:47.450Z,4.83
2023-05-02T06:08:47.432Z,4.62
2023-05-02T06:09:47.429Z,4.77
2023-05-02T06:10:47.433Z,4.80
2023-05-02T06:11:47.409Z,4.67
2023-05-02T06:12:49.292Z,4.83
2023-05-02T06:13:47.379Z,4.83
2023-05-02T06:14:47.405Z,4.77
2023-05-02T06:15:47.453Z,4.72
2023-05-02T06:16:47.380Z,4.77
2023-05-02T06:17:47.362Z,4.86
2023-05-02T06:18:47.328Z,4.83
2023-05-02T06:19:47.311Z,4.93
2023-05-02T06:20:47.304Z,4.94
2023-05-02T06:21:47.299Z,4.94
2023-05-02T06:22:47.331Z,4.94
2023-05-02T06:23:47.270Z,4.80
2023-05-02T06:24:47.272Z,4.83
2023-05-02T06:25:47.251Z,4.79
2023-05-02T06:26:47.241Z,4.90
2023-05-02T06:27:47.247Z,4.79
2023-05-02T06:28:47.233Z,4.88
2023-05-02T06:29:47.201Z,4.74
2023-05-02T06:30:47.218Z,4.74
2023-05-02T06:31:47.205Z,4.72
2023-05-02T06:32:47.225Z,4.69
2023-05-02T06:33:47.175Z,4.84
2023-05-02T06:34:47.186Z,4.87
2023-05-02T06:35:47.138Z,4.69
2023-05-02T06:36:47.138Z,4.83
2023-05-02T06:37:47.115Z,4.80
2023-05-02T06:38:47.116Z,4.83
2023-05-02T06:39:47.108Z,4.87
2023-05-02T06:40:47.131Z,4.87
2023-05-02T06:41:47.073Z,4.77
2023-05-02T06:42:47.066Z,4.91
2023-05-02T06:43:47.052Z,4.84
2023-05-02T06:44:47.071Z,4.99
2023-05-02T06:45:47.050Z,5.04
2023-05-02T06:46:47.116Z,5.01
2023-05-02T06:47:47.016Z,5.05
2023-05-02T06:48:46.996Z,4.96
2023-05-02T06:49:46.990Z,4.77
2023-05-02T06:50:46.981Z,4.88
2023-05-02T06:51:46.963Z,4.84
2023-05-02T06:52:46.984Z,4.86
2023-05-02T06:53:46.944Z,4.90
2023-05-02T06:54:46.935Z,4.94
2023-05-02T06:55:46.955Z,4.79
2023-05-02T06:56:46.923Z,5.01
2023-05-02T06:57:46.897Z,5.04
2023-05-02T06:58:46.944Z,5.02
2023-05-02T06:59:46.873Z,4.97
2023-05-02T07:00:46.964Z,4.94
2023-05-02T07:01:46.854Z,5.02
2023-05-02T07:02:46.903Z,5.06
2023-05-02T07:03:46.841Z,5.14
2023-05-02T07:04:47.147Z,5.17
2023-05-02T07:05:46.837Z,5.12
2023-05-02T07:06:46.850Z,5.23
2023-05-02T07:07:46.793Z,5.20
2023-05-02T07:08:46.792Z,5.32
2023-05-02T07:09:46.770Z,5.35
2023-05-02T07:10:46.798Z,5.40
2023-05-02T07:11:46.757Z,5.38
2023-05-02T07:12:46.759Z,5.30
2023-05-02T07:13:46.725Z,5.30
2023-05-02T07:14:46.728Z,5.32
2023-05-02T07:15:46.704Z,5.38
2023-05-02T07:16:46.790Z,5.26
2023-05-02T07:17:46.733Z,5.40
2023-05-02T07:18:46.693Z,5.44
2023-05-02T07:19:46.685Z,5.65
2023-05-02T07:20:46.692Z,5.51
2023-05-02T07:21:46.635Z,5.49
2023-05-02T07:22:46.641Z,5.60
2023-05-02T07:23:46.618Z,5.55
2023-05-02T07:24:46.613Z,5.49
2023-05-02T07:25:46.596Z,5.24
2023-05-02T07:26:46.596Z,5.19
2023-05-02T07:27:46.573Z,5.15
2023-05-02T07:28:46.588Z,5.05
2023-05-02T07:29:46.552Z,5.01
2023-05-02T07:30:46.559Z,5.02
2023-05-02T07:31:46.591Z,5.05
2023-05-02T07:32:46.581Z,4.96
2023-05-02T07:33:46.509Z,4.91
2023-05-02T07:34:46.518Z,4.96
2023-05-02T07:35:46.504Z,5.08
2023-05-02T07:36:46.491Z,5.02
2023-05-02T07:37:46.541Z,5.09
2023-05-02T07:38:46.462Z,5.05
2023-05-02T07:39:46.446Z,5.22
2023-05-02T07:40:46.449Z,5.11
2023-05-02T07:41:46.430Z,4.99
2023-05-02T07:42:46.425Z,5.14
2023-05-02T07:43:46.440Z,5.12
2023-05-02T07:44:46.401Z,5.12
2023-05-02T07:45:46.390Z,5.05
2023-05-02T07:46:46.499Z,5.24
2023-05-02T07:47:46.414Z,5.11
2023-05-02T07:48:46.368Z,5.20
2023-05-02T07:49:46.335Z,5.24
2023-05-02T07:50:46.365Z,5.11
2023-05-02T07:51:46.318Z,5.12
2023-05-02T07:52:46.336Z,5.15
2023-05-02T07:53:46.304Z,5.17
2023-05-02T07:54:46.302Z,5.04
2023-05-02T07:55:46.283Z,4.99
2023-05-02T07:56:46.285Z,5.05
2023-05-02T07:57:46.252Z,5.05
2023-05-02T07:58:46.271Z,5.06
2023-05-02T07:59:46.242Z,4.97
2023-05-02T08:00:46.226Z,4.97
2023-05-02T08:01:46.210Z,5.02
2023-05-02T08:02:46.321Z,4.99
2023-05-02T08:03:46.406Z,5.02
2023-05-02T08:04:46.278Z,4.97
2023-05-02T08:05:46.188Z,4.96
2023-05-02T08:06:46.227Z,4.86
2023-05-02T08:07:46.148Z,4.97
2023-05-02T08:08:46.135Z,5.06
2023-05-02T08:09:46.123Z,4.96
2023-05-02T08:10:46.172Z,4.84
2023-05-02T08:11:46.102Z,4.91
2023-05-02T08:12:46.093Z,4.80
2023-05-02T08:13:46.081Z,4.93
2023-05-02T08:14:46.074Z,4.99
2023-05-02T08:15:46.113Z,5.09
2023-05-02T08:16:46.687Z,5.04
2023-05-02T08:17:46.116Z,5.06
2023-05-02T08:18:46.029Z,5.05
2023-05-02T08:19:46.030Z,5.17
2023-05-02T08:20:46.007Z,5.17
2023-05-02T08:21:46.021Z,5.11
2023-05-02T08:22:46.032Z,4.99
2023-05-02T08:23:45.980Z,5.09
2023-05-02T08:24:45.972Z,5.05
2023-05-02T08:25:45.965Z,5.26
2023-05-02T08:26:45.943Z,5.29
2023-05-02T08:27:45.951Z,5.14
2023-05-02T08:28:45.943Z,5.49
2023-05-02T08:29:45.912Z,5.59
2023-05-02T08:30:45.918Z,5.73
2023-05-02T08:31:45.952Z,5.92
2023-05-02T08:32:45.921Z,6.05
2023-05-02T08:33:45.881Z,6.14
2023-05-02T08:34:45.881Z,6.42
2023-05-02T08:35:45.842Z,6.17
2023-05-02T08:36:45.833Z,6.36
2023-05-02T08:37:45.842Z,6.39
2023-05-02T08:38:45.846Z,6.38
2023-05-02T08:39:45.798Z,6.53
2023-05-02T08:40:45.819Z,6.55
2023-05-02T08:41:45.779Z,6.32
2023-05-02T08:42:45.782Z,6.32
2023-05-02T08:43:45.771Z,6.19
2023-05-02T08:44:45.752Z,6.21
2023-05-02T08:45:45.733Z,6.16
2023-05-02T08:46:45.766Z,6.57
2023-05-02T08:47:45.773Z,6.60
2023-05-02T08:48:45.706Z,6.58
2023-05-02T08:49:45.691Z,6.75
2023-05-02T08:50:45.788Z,6.58
2023-05-02T08:51:45.668Z,6.60
2023-05-02T08:52:45.690Z,6.72
2023-05-02T08:53:45.730Z,6.82
2023-05-02T08:54:45.658Z,6.78
2023-05-02T08:55:45.622Z,6.86
2023-05-02T08:56:45.618Z,7.08
2023-05-02T08:57:45.603Z,7.08
2023-05-02T08:58:45.644Z,7.34
2023-05-02T08:59:45.579Z,7.42
2023-05-02T09:00:45.636Z,7.54
2023-05-02T09:01:45.723Z,7.55
2023-05-02T09:02:45.598Z,7.50
2023-05-02T09:03:45.551Z,7.66
2023-05-02T09:04:45.623Z,7.51
2023-05-02T09:05:45.526Z,7.47
2023-05-02T09:06:45.588Z,7.47
2023-05-02T09:07:45.495Z,7.47
2023-05-02T09:08:45.488Z,7.30
2023-05-02T09:09:45.483Z,7.45
2023-05-02T09:10:45.503Z,7.51
2023-05-02T09:11:45.468Z,7.44
2023-05-02T09:12:45.451Z,7.42
2023-05-02T09:13:45.449Z,7.55
2023-05-02T09:14:45.444Z,7.69
2023-05-02T09:15:45.406Z,7.29
2023-05-02T09:16:45.460Z,7.36
2023-05-02T09:17:45.408Z,7.32
2023-05-02T09:18:45.444Z,7.00
2023-05-02T09:19:45.372Z,6.99
2023-05-02T09:20:45.358Z,7.11
2023-05-02T09:21:45.341Z,7.12
2023-05-02T09:22:45.355Z,7.23
2023-05-02T09:23:45.330Z,7.07
2023-05-02T09:24:45.309Z,6.96
2023-05-02T09:25:45.300Z,6.78
2023-05-02T09:26:45.311Z,6.71
2023-05-02T09:27:45.276Z,6.82
2023-05-02T09:28:45.289Z,6.75
2023-05-02T09:29:45.263Z,6.72
2023-05-02T09:30:45.269Z,6.57
2023-05-02T09:31:55.637Z,6.60
2023-05-02T09:32:46.253Z,6.61
2023-05-02T09:33:45.210Z,6.61
2023-05-02T09:34:45.236Z,6.64
2023-05-02T09:35:45.187Z,6.61
2023-05-02T09:36:45.198Z,6.61
2023-05-02T09:37:45.165Z,6.48
2023-05-02T09:38:45.161Z,6.64
2023-05-02T09:39:45.145Z,6.61
2023-05-02T09:40:45.168Z,6.43
2023-05-02T09:41:45.135Z,6.40
2023-05-02T09:42:45.133Z,6.43
2023-05-02T09:43:45.110Z,6.36
2023-05-02T09:44:45.106Z,6.38
2023-05-02T09:45:45.128Z,6.30
2023-05-02T09:46:45.146Z,6.30
2023-05-02T09:47:45.128Z,6.57
2023-05-02T09:48:45.059Z,6.63
2023-05-02T09:49:45.479Z,6.72
2023-05-02T09:50:45.041Z,6.68
2023-05-02T09:51:45.030Z,6.75
2023-05-02T09:52:45.016Z,6.58
2023-05-02T09:53:45.001Z,6.60
2023-05-02T09:54:44.997Z,6.46
2023-05-02T09:55:44.975Z,6.54
2023-05-02T09:56:44.966Z,6.60
2023-05-02T09:57:44.959Z,6.61
2023-05-02T09:58:44.985Z,6.38
2023-05-02T09:59:44.930Z,6.38
2023-05-02T10:00:44.931Z,6.48
2023-05-02T10:01:44.925Z,6.48
2023-05-02T10:02:44.936Z,6.40
2023-05-02T10:03:44.963Z,6.36
2023-05-02T10:04:45.025Z,6.33
2023-05-02T10:05:45.201Z,6.35
2023-05-02T10:06:44.942Z,6.46
2023-05-02T10:07:44.848Z,6.50
2023-05-02T10:08:44.838Z,6.50
2023-05-02T10:09:44.842Z,6.45
2023-05-02T10:10:44.837Z,6.50
2023-05-02T10:11:44.817Z,6.54
2023-05-02T10:12:44.792Z,6.48
2023-05-02T10:13:44.804Z,6.16
2023-05-02T10:14:44.882Z,6.32
2023-05-02T10:15:44.848Z,6.21
2023-05-02T10:16:44.759Z,6.28
2023-05-02T10:17:44.757Z,6.25
2023-05-02T10:18:44.731Z,6.17
2023-05-02T10:19:44.714Z,6.16
2023-05-02T10:20:44.762Z,6.13
2023-05-02T10:21:44.700Z,6.16
2023-05-02T10:22:44.696Z,6.28
2023-05-02T10:23:44.672Z,6.24
2023-05-02T10:24:44.672Z,6.35
2023-05-02T10:25:44.662Z,6.30
2023-05-02T10:26:44.645Z,6.48
2023-05-02T10:27:44.640Z,6.53
2023-05-02T10:28:44.620Z,6.68
2023-05-02T10:29:44.614Z,6.87
2023-05-02T10:30:44.619Z,6.91
2023-05-02T10:31:45.066Z,6.99
2023-05-02T10:32:44.589Z,7.04
2023-05-02T10:33:44.584Z,7.27
2023-05-02T10:34:44.553Z,7.44
2023-05-02T10:35:44.541Z,7.21
2023-05-02T10:36:44.531Z,7.09
2023-05-02T10:37:44.529Z,7.19
2023-05-02T10:38:44.532Z,7.14
2023-05-02T10:39:44.517Z,7.21
2023-05-02T10:40:44.487Z,7.36
2023-05-02T10:41:44.488Z,7.24
2023-05-02T10:42:44.465Z,7.18
2023-05-02T10:43:44.452Z,7.24
2023-05-02T10:44:44.442Z,7.32
2023-05-02T10:45:44.463Z,7.12
2023-05-02T10:46:44.498Z,7.15
2023-05-02T10:47:44.451Z,7.29
2023-05-02T10:48:44.404Z,7.32
2023-05-02T10:49:44.388Z,7.08
2023-05-02T10:50:44.381Z,7.09
2023-05-02T10:51:44.380Z,7.27
2023-05-02T10:52:44.356Z,7.19
2023-05-02T10:53:44.354Z,7.34
2023-05-02T10:54:44.336Z,7.21
2023-05-02T10:55:44.320Z,7.45
2023-05-02T10:56:44.312Z,7.77
2023-05-02T10:57:44.359Z,7.67
2023-05-02T10:58:44.306Z,7.51
2023-05-02T10:59:44.280Z,7.45
2023-05-02T11:00:44.287Z,7.57
2023-05-02T11:01:44.373Z,7.63
2023-05-02T11:02:44.456Z,7.51
2023-05-02T11:03:44.271Z,7.67
2023-05-02T11:04:44.236Z,7.50
2023-05-02T11:05:44.222Z,7.42
2023-05-02T11:06:44.311Z,7.44
2023-05-02T11:07:44.186Z,7.66
2023-05-02T11:08:44.181Z,7.77
2023-05-02T11:09:44.192Z,7.76
2023-05-02T11:10:44.155Z,7.76
2023-05-02T11:11:44.159Z,7.63
2023-05-02T11:12:44.141Z,7.71
2023-05-02T11:13:44.125Z,7.82
2023-05-02T11:14:44.130Z,7.77
2023-05-02T11:15:44.125Z,7.63
2023-05-02T11:16:44.116Z,7.54
2023-05-02T11:17:44.097Z,7.34
2023-05-02T11:18:44.117Z,7.33
2023-05-02T11:19:44.068Z,7.57
2023-05-02T11:20:44.123Z,7.33
2023-05-02T11:21:44.052Z,7.24
2023-05-02T11:22:44.025Z,7.18
2023-05-02T11:23:44.026Z,7.16
2023-05-02T11:24:44.013Z,7.23
2023-05-02T11:25:44.024Z,7.21
2023-05-02T11:26:43.983Z,7.36
2023-05-02T11:27:44.060Z,7.27
2023-05-02T11:28:43.960Z,7.16
2023-05-02T11:29:43.964Z,7.19
2023-05-02T11:30:44.187Z,7.18
2023-05-02T11:31:43.997Z,7.21
2023-05-02T11:32:43.993Z,7.24
2023-05-02T11:33:43.935Z,7.29
2023-05-02T11:34:43.914Z,7.16
2023-05-02T11:35:43.897Z,7.39
2023-05-02T11:36:43.881Z,7.34
2023-05-02T11:37:43.873Z,7.45
2023-05-02T11:38:43.853Z,7.55
2023-05-02T11:39:43.868Z,7.70
2023-05-02T11:40:43.841Z,7.77
2023-05-02T11:41:43.831Z,7.88
2023-05-02T11:42:43.809Z,7.71
2023-05-02T11:43:43.800Z,7.71
2023-05-02T11:44:43.793Z,7.79
2023-05-02T11:45:43.889Z,7.74
2023-05-02T11:46:43.833Z,7.66
2023-05-02T11:47:43.802Z,7.69
2023-05-02T11:48:43.739Z,7.69
2023-05-02T11:49:43.735Z,7.73
2023-05-02T11:50:48.728Z,7.66
2023-05-02T11:51:44.741Z,7.69
2023-05-02T11:52:43.703Z,7.81
2023-05-02T11:53:43.692Z,7.88
2023-05-02T11:54:43.761Z,7.94
2023-05-02T11:55:43.670Z,7.82
2023-05-02T11:56:43.659Z,7.85
2023-05-02T11:57:43.699Z,7.77
2023-05-02T11:58:43.635Z,7.62
2023-05-02T11:59:43.630Z,7.62
2023-05-02T12:00:43.620Z,7.57
2023-05-02T12:01:43.614Z,7.57
2023-05-02T12:02:43.673Z,7.44
2023-05-02T12:03:43.837Z,7.44
2023-05-02T12:04:43.568Z,7.41
2023-05-02T12:05:43.575Z,7.47
2023-05-02T12:06:43.699Z,7.60
2023-05-02T12:07:43.545Z,7.51
2023-05-02T12:08:43.533Z,7.47
2023-05-02T12:09:43.536Z,7.47
2023-05-02T12:10:43.504Z,7.54
2023-05-02T12:11:43.511Z,7.67
2023-05-02T12:12:43.497Z,7.54
2023-05-02T12:13:43.473Z,7.48
2023-05-02T12:14:43.472Z,7.37
2023-05-02T12:15:43.511Z,7.48
2023-05-02T12:16:43.523Z,7.45
2023-05-02T12:17:43.509Z,7.50
2023-05-02T12:18:43.426Z,7.55
2023-05-02T12:19:43.420Z,7.63
2023-05-02T12:20:43.395Z,7.66
2023-05-02T12:21:43.424Z,7.58
2023-05-02T12:22:43.391Z,7.69
2023-05-02T12:23:43.364Z,7.67
2023-05-02T12:24:43.363Z,7.71
2023-05-02T12:25:43.374Z,7.67
2023-05-02T12:26:43.328Z,7.45
2023-05-02T12:27:43.335Z,7.51
2023-05-02T12:28:43.308Z,7.51
2023-05-02T12:29:43.299Z,7.57
2023-05-02T12:30:43.284Z,7.69
2023-05-02T12:31:43.308Z,7.67
2023-05-02T12:32:43.313Z,7.66
2023-05-02T12:33:43.339Z,7.69
2023-05-02T12:34:43.243Z,7.45
2023-05-02T12:35:43.233Z,7.39
2023-05-02T12:36:43.241Z,7.67
2023-05-02T12:37:43.211Z,7.76
2023-05-02T12:38:43.216Z,7.67
2023-05-02T12:39:43.217Z,7.52
2023-05-02T12:40:43.171Z,7.54
2023-05-02T12:41:43.177Z,7.44
2023-05-02T12:42:43.153Z,7.44
2023-05-02T12:43:43.145Z,7.33
2023-05-02T12:44:43.132Z,7.44
2023-05-02T12:45:43.136Z,7.50
2023-05-02T12:46:43.135Z,7.55
2023-05-02T12:47:43.144Z,7.52
2023-05-02T12:48:44.205Z,7.54
2023-05-02T12:49:43.097Z,7.62
2023-05-02T12:50:43.068Z,7.60
2023-05-02T12:51:43.078Z,7.69
2023-05-02T12:52:43.043Z,7.70
2023-05-02T12:53:43.052Z,7.81
2023-05-02T12:54:44.489Z,7.88
2023-05-02T12:55:43.023Z,7.92
2023-05-02T12:56:42.998Z,8.02
2023-05-02T12:57:43.020Z,7.99
2023-05-02T12:58:43.031Z,7.95
2023-05-02T12:59:42.973Z,8.02
2023-05-02T13:00:44.783Z,8.02
2023-05-02T13:01:43.094Z,8.17
2023-05-02T13:02:42.969Z,8.25
2023-05-02T13:03:42.956Z,8.54
2023-05-02T13:04:42.912Z,8.52
2023-05-02T13:05:42.915Z,8.75
2023-05-02T13:06:45.124Z,8.82
2023-05-02T13:07:42.881Z,8.76
2023-05-02T13:08:42.892Z,8.89
2023-05-02T13:09:42.860Z,9.12
2023-05-02T13:10:42.866Z,8.82
2023-05-02T13:11:42.850Z,8.94
2023-05-02T13:12:43.814Z,8.76
2023-05-02T13:13:42.811Z,8.64
2023-05-02T13:14:42.847Z,8.60
2023-05-02T13:15:42.806Z,8.60
2023-05-02T13:16:42.974Z,8.54
2023-05-02T13:17:42.920Z,8.54
2023-05-02T13:18:44.648Z,8.46